Time;durP1;ratioP1;P1;durP2;ratioP2;P2;SDS_P1;SDS_P2;PMS_P1;PMS_P2;Temp;Humidity;BMP_temperature;BMP_pressure;BME280_temperature;BME280_humidity;BME280_pressure;Samples;Min_cycle;Max_cycle;Signal;HPM_P1;HPM_P2
2023/01/24 00:00:53;;;;;;;9.40;8.40;;;;;;;6.11;55.99;99451.13;8380444;28;20244;-65
2023/01/24 00:04:55;;;;;;;9.80;8.07;;;;;;;6.00;55.73;99438.31;8380654;28;20565;-66
2023/01/24 00:09:01;;;;;;;9.40;7.57;;;;;;;4.88;55.78;99264.59;8380178;28;20240;-66
2023/01/24 00:13:03;;;;;;;9.37;7.93;;;;;;;5.67;56.61;99458.03;8379963;28;20221;-66
2023/01/24 00:17:07;;;;;;;8.87;7.97;;;;;;;5.96;55.78;99463.19;8380199;28;20445;-65
2023/01/24 00:21:12;;;;;;;8.67;7.77;;;;;;;5.82;56.74;99463.16;8379801;28;20228;-66
2023/01/24 00:25:16;;;;;;;9.47;8.20;;;;;;;6.02;56.04;99478.59;8379118;28;20228;-65
2023/01/24 00:29:19;;;;;;;9.23;8.10;;;;;;;6.02;55.34;99470.03;8379514;28;20426;-65
2023/01/24 00:33:22;;;;;;;9.43;7.60;;;;;;;6.22;55.34;99465.66;8379268;28;20523;-65
2023/01/24 00:37:25;;;;;;;8.63;7.73;;;;;;;5.57;55.30;99377.50;8378917;28;20248;-65
2023/01/24 00:41:30;;;;;;;8.73;7.83;;;;;;;6.17;55.41;99474.25;8378937;28;20430;-65
2023/01/24 00:45:36;;;;;;;9.07;8.10;;;;;;;6.14;55.34;99472.56;8378581;28;20227;-66
2023/01/24 00:49:39;;;;;;;9.60;8.37;;;;;;;5.68;56.35;99470.03;8379216;28;20236;-66
2023/01/24 00:53:42;;;;;;;8.80;7.93;;;;;;;6.19;55.57;99473.41;8378442;28;20248;-66
2023/01/24 00:57:46;;;;;;;9.20;8.00;;;;;;;5.93;55.83;99478.56;8378929;28;20237;-65
2023/01/24 01:01:49;;;;;;;8.70;7.80;;;;;;;6.17;55.19;99476.81;8378370;28;20233;-65
2023/01/24 01:05:58;;;;;;;8.40;7.50;;;;;;;5.93;55.90;99468.28;8378240;28;20233;-66
2023/01/24 01:10:00;;;;;;;9.57;8.57;;;;;;;5.90;55.98;99475.13;8378702;28;20236;-64
2023/01/24 01:14:05;;;;;;;8.90;8.00;;;;;;;6.25;55.08;99480.25;8379118;28;20224;-65
2023/01/24 01:18:08;;;;;;;8.10;7.30;;;;;;;6.20;55.57;99477.69;8379028;28;20243;-65
2023/01/24 01:22:10;;;;;;;8.87;7.97;;;;;;;5.97;55.94;99484.59;8378787;28;20236;-65
2023/01/24 01:26:16;;;;;;;9.00;8.10;;;;;;;6.12;55.89;99488.88;8378503;28;20233;-66
2023/01/24 01:30:21;;;;;;;9.37;8.10;;;;;;;6.31;55.47;99502.53;8378692;28;20228;-67
2023/01/24 01:34:23;;;;;;;9.13;8.23;;;;;;;6.05;55.69;99504.31;8378457;28;20221;-66
2023/01/24 01:38:27;;;;;;;9.27;8.00;;;;;;;6.16;55.24;99508.56;8378442;28;20247;-65
2023/01/24 01:42:40;;;;;;;9.13;8.07;;;;;;;6.15;55.76;99499.13;8378359;28;20532;-65
2023/01/24 01:46:48;;;;;;;9.60;8.67;;;;;;;5.97;56.37;99515.47;8377958;28;20221;-65
2023/01/24 01:50:55;;;;;;;8.80;7.40;;;;;;;6.15;56.45;99505.16;8377836;28;20228;-66
2023/01/24 01:55:01;;;;;;;8.73;7.83;;;;;;;6.08;56.27;99516.31;8377210;28;20233;-66
2023/01/24 01:59:08;;;;;;;9.30;8.30;;;;;;;6.18;56.20;99514.56;8377440;28;20485;-65
2023/01/24 02:08:19;;;;;;;9.30;8.10;;;;;;;5.56;56.88;99519.72;7711899;22;20225;-67
2023/01/24 02:12:22;;;;;;;9.20;8.00;;;;;;;5.53;56.56;99470.88;8344769;28;20237;-65
2023/01/24 02:16:24;;;;;;;10.10;8.63;;;;;;;5.21;59.07;99522.22;8344692;28;20229;-65
2023/01/24 02:20:35;;;;;;;10.43;9.17;;;;;;;6.12;56.40;99530.03;8344575;28;20232;-65
2023/01/24 02:24:43;;;;;;;9.93;8.80;;;;;;;5.94;56.84;99530.84;8344728;28;20272;-65
2023/01/24 02:28:51;;;;;;;10.20;9.07;;;;;;;5.41;58.74;99535.97;8344347;28;20232;-64
2023/01/24 02:32:54;;;;;;;9.77;8.60;;;;;;;5.86;57.37;99541.13;8344622;28;20431;-67
2023/01/24 02:36:58;;;;;;;11.10;9.20;;;;;;;6.16;56.73;99536.88;8344502;28;20237;-65
2023/01/24 02:41:06;;;;;;;9.50;8.50;;;;;;;5.55;57.45;99470.88;8344296;28;20244;-66
2023/01/24 02:45:14;;;;;;;11.37;8.77;;;;;;;5.32;58.04;99535.09;8344428;28;20226;-66
2023/01/24 02:49:17;;;;;;;10.40;8.93;;;;;;;6.00;57.22;99536.88;8344122;28;20229;-65
2023/01/24 02:53:30;;;;;;;9.07;7.73;;;;;;;6.01;56.87;99527.44;8344132;28;20226;-65
2023/01/24 03:01:54;;;;;;;10.17;8.07;;;;;;;5.22;59.67;99521.38;8343777;28;20227;-64
2023/01/24 03:05:57;;;;;;;9.97;7.53;;;;;;;4.98;60.06;99522.16;8343759;28;20233;-64
2023/01/24 03:10:00;;;;;;;9.30;7.93;;;;;;;4.97;60.28;99523.00;8349317;28;20531;-65
2023/01/24 03:35:53;;;;;;;7.40;6.57;;;;;;;5.18;58.82;99540.19;8348887;28;20221;-65
2023/01/24 03:39:58;;;;;;;7.80;6.60;;;;;;;4.49;61.82;99544.22;8349185;28;20542;-65
2023/01/24 03:44:01;;;;;;;8.17;6.33;;;;;;;4.48;62.29;99539.06;8349123;28;20566;-66
2023/01/24 03:48:09;;;;;;;8.03;7.00;;;;;;;5.45;58.78;99524.00;8349095;28;20326;-65
2023/01/24 03:52:25;;;;;;;7.70;6.90;;;;;;;5.07;59.01;99525.63;8348861;28;20233;-67
2023/01/24 03:56:28;;;;;;;7.70;6.90;;;;;;;4.77;60.07;99534.06;8348653;28;20241;-64
2023/01/24 04:00:31;;;;;;;7.57;6.60;;;;;;;4.78;60.62;99481.00;8348680;28;20233;-67
2023/01/24 04:08:52;;;;;;;9.07;6.87;;;;;;;5.19;59.37;99527.34;8347231;28;20231;-65
2023/01/24 04:12:55;;;;;;;7.83;6.83;;;;;;;5.41;58.79;99510.28;8348263;28;20545;-66
2023/01/24 04:16:57;;;;;;;7.30;6.50;;;;;;;5.54;58.61;99529.16;8348175;28;20234;-65
2023/01/24 04:21:02;;;;;;;8.23;6.87;;;;;;;5.51;57.66;99525.72;8346783;28;20233;-65
2023/01/24 04:25:07;;;;;;;7.20;6.37;;;;;;;5.74;57.83;99520.59;8347745;28;20229;-65
2023/01/24 04:29:10;;;;;;;8.63;7.37;;;;;;;5.99;57.29;99512.00;8347806;28;20237;-66
2023/01/24 04:33:13;;;;;;;7.63;6.80;;;;;;;5.38;58.34;99505.13;8347308;28;20310;-66
2023/01/24 04:37:15;;;;;;;7.40;6.63;;;;;;;5.36;57.92;99509.41;8347340;28;20240;-65
2023/01/24 04:41:20;;;;;;;7.47;6.43;;;;;;;5.43;58.92;99510.28;8347294;28;20235;-64
2023/01/24 04:45:23;;;;;;;8.30;6.97;;;;;;;5.75;58.09;99507.72;8347290;28;20222;-65
2023/01/24 04:49:26;;;;;;;8.00;6.90;;;;;;;5.53;57.87;99518.84;8346994;28;20229;-65
2023/01/24 04:53:29;;;;;;;8.23;6.37;;;;;;;5.96;57.17;99514.59;8346870;28;20233;-66
2023/01/24 04:57:34;;;;;;;6.80;6.10;;;;;;;5.58;57.68;99486.28;8346857;28;20230;-66
2023/01/24 05:01:36;;;;;;;7.03;6.20;;;;;;;5.75;56.53;99497.44;8346522;28;20237;-65
2023/01/24 05:05:39;;;;;;;7.50;6.23;;;;;;;5.50;58.44;99517.13;8346328;28;20230;-66
2023/01/24 05:09:42;;;;;;;8.70;6.83;;;;;;;5.11;58.68;99521.34;8346072;28;20463;-65
2023/01/24 05:13:46;;;;;;;8.13;6.30;;;;;;;5.90;57.21;99524.00;8346238;28;20233;-65
2023/01/24 05:17:49;;;;;;;6.73;6.03;;;;;;;5.72;57.66;99528.28;8346287;28;20671;-65
2023/01/24 05:21:52;;;;;;;7.17;5.83;;;;;;;6.03;56.43;99530.88;8345992;28;20234;-66
2023/01/24 05:25:59;;;;;;;6.10;5.30;;;;;;;5.98;55.70;99528.31;8345927;28;20429;-65
2023/01/24 05:30:03;;;;;;;5.87;5.37;;;;;;;6.08;56.23;99534.31;8345612;28;20237;-65
2023/01/24 05:34:06;;;;;;;6.13;5.30;;;;;;;5.95;56.95;99541.16;8345466;28;20225;-65
2023/01/24 05:38:09;;;;;;;6.20;5.37;;;;;;;5.88;56.29;99539.41;8345695;28;20252;-66
2023/01/24 05:42:12;;;;;;;5.83;5.00;;;;;;;5.98;56.54;99543.75;8345463;28;20234;-67
2023/01/24 05:46:18;;;;;;;6.13;5.50;;;;;;;5.63;57.05;99536.84;8345481;28;20229;-66
2023/01/24 05:50:21;;;;;;;5.13;4.53;;;;;;;5.83;56.90;99546.28;8345376;28;20307;-66
2023/01/24 05:54:23;;;;;;;5.40;4.90;;;;;;;5.76;56.97;99552.28;8345273;28;20221;-66
2023/01/24 05:58:27;;;;;;;5.57;5.00;;;;;;;5.75;56.14;99533.44;8345178;28;20232;-65
2023/01/24 06:02:31;;;;;;;5.60;5.00;;;;;;;6.05;55.71;99555.75;8344988;28;20436;-66
2023/01/24 06:06:34;;;;;;;5.53;5.03;;;;;;;6.02;56.16;99549.75;8344876;28;20230;-66
2023/01/24 06:10:37;;;;;;;4.90;4.40;;;;;;;5.84;56.05;99548.84;8344895;28;20229;-66
2023/01/24 06:14:40;;;;;;;5.27;4.77;;;;;;;5.94;55.72;99565.16;8344941;28;20237;-66
2023/01/24 06:18:44;;;;;;;5.47;4.97;;;;;;;5.87;55.83;99545.44;8344486;28;20237;-67
2023/01/24 06:22:52;;;;;;;6.67;5.13;;;;;;;6.07;55.68;99576.31;8344477;28;20237;-66
2023/01/24 06:26:56;;;;;;;4.70;4.30;;;;;;;5.70;56.56;99578.00;8344747;28;20233;-65
2023/01/24 06:31:04;;;;;;;5.17;4.67;;;;;;;5.41;57.49;99582.22;8344559;28;20225;-65
2023/01/24 06:35:20;;;;;;;4.87;4.40;;;;;;;5.66;56.55;99584.84;8344084;28;20537;-65
2023/01/24 06:39:24;;;;;;;5.10;4.60;;;;;;;5.79;56.61;99573.72;8344270;28;20241;-66
2023/01/24 06:43:27;;;;;;;5.17;4.67;;;;;;;5.51;56.93;99588.22;8347275;28;20474;-65
2023/01/24 06:47:30;;;;;;;4.93;4.43;;;;;;;6.05;56.23;99585.75;8350879;28;20540;-66
2023/01/24 06:51:34;;;;;;;4.70;4.30;;;;;;;6.14;56.17;99593.47;8350454;28;20226;-66
2023/01/24 06:55:37;;;;;;;4.70;4.30;;;;;;;6.20;55.60;99598.59;8350653;28;20513;-65
2023/01/24 06:59:40;;;;;;;5.40;4.70;;;;;;;5.92;56.07;99577.16;8350487;28;20241;-66
2023/01/24 07:03:43;;;;;;;5.30;4.80;;;;;;;6.09;55.42;99595.16;8349952;28;20225;-67
2023/01/24 07:07:47;;;;;;;5.83;5.00;;;;;;;6.34;55.72;99593.47;8349765;28;20237;-66
2023/01/24 07:11:52;;;;;;;6.57;5.13;;;;;;;6.22;55.71;99590.88;8349707;28;20233;-66
2023/01/24 07:15:55;;;;;;;5.90;5.30;;;;;;;6.40;55.30;99608.88;8349557;28;20240;-66
2023/01/24 07:19:59;;;;;;;6.57;4.70;;;;;;;6.29;55.60;99600.31;8350152;28;20233;-65
2023/01/24 07:24:03;;;;;;;4.80;4.40;;;;;;;6.21;55.43;99602.91;8349798;28;20337;-66
2023/01/24 07:28:06;;;;;;;4.43;4.03;;;;;;;6.31;55.31;99611.47;8349454;28;20243;-65
2023/01/24 07:32:10;;;;;;;6.07;4.43;;;;;;;6.28;55.35;99624.31;8349457;28;20229;-67
2023/01/24 07:36:14;;;;;;;4.77;4.10;;;;;;;6.03;55.15;99620.88;8349380;28;20279;-66
2023/01/24 07:40:19;;;;;;;5.07;4.57;;;;;;;5.96;55.67;99617.47;8349326;28;20240;-66
2023/01/24 07:44:21;;;;;;;5.03;4.47;;;;;;;5.94;56.44;99613.13;8349357;28;20252;-66
2023/01/24 07:48:24;;;;;;;8.07;7.23;;;;;;;6.30;56.04;99629.47;8349134;28;20253;-66
2023/01/24 07:52:27;;;;;;;5.10;4.60;;;;;;;6.28;55.78;99624.31;8348904;28;20233;-65
2023/01/24 07:56:31;;;;;;;7.80;7.10;;;;;;;6.38;55.65;99632.91;8348929;28;20225;-66
2023/01/24 08:00:34;;;;;;;6.00;5.40;;;;;;;6.38;55.76;99638.06;8348860;28;20425;-67
2023/01/24 08:04:36;;;;;;;5.03;4.53;;;;;;;6.43;55.64;99647.47;8348569;28;20236;-66
2023/01/24 08:08:39;;;;;;;5.67;4.83;;;;;;;6.20;56.43;99649.19;8348181;28;20240;-66
2023/01/24 08:12:43;;;;;;;5.60;5.10;;;;;;;6.14;56.21;99654.34;8348046;28;20232;-66
2023/01/24 08:16:46;;;;;;;12.20;11.00;;;;;;;6.07;56.35;99656.91;8348232;28;20233;-66
2023/01/24 08:20:49;;;;;;;8.50;7.70;;;;;;;5.98;56.92;99659.47;8348050;28;20234;-65
2023/01/24 08:24:52;;;;;;;19.67;17.57;;;;;;;6.44;54.94;99661.22;8347860;28;20240;-66
2023/01/24 08:28:56;;;;;;;15.23;12.40;;;;;;;7.42;78.11;99675.56;8347757;28;20241;-67
2023/01/24 08:33:00;;;;;;;25.77;19.70;;;;;;;9.76;64.46;99666.56;8347870;28;20233;-67
2023/01/24 08:37:03;;;;;;;9.57;8.43;;;;;;;7.48;54.90;99665.22;8347531;28;20240;-67
2023/01/24 08:41:07;;;;;;;55.57;38.33;;;;;;;7.38;53.86;99679.00;8347309;28;20229;-67
2023/01/24 08:45:12;;;;;;;8.60;7.70;;;;;;;7.10;54.26;99681.69;8347377;28;20248;-67
2023/01/24 08:49:15;;;;;;;13.80;12.37;;;;;;;6.77;53.74;99691.19;8347269;28;20356;-66
2023/01/24 08:53:17;;;;;;;15.70;14.03;;;;;;;5.92;56.36;99581.41;8346932;28;20229;-66
2023/01/24 08:57:20;;;;;;;11.60;9.70;;;;;;;6.59;55.10;99679.22;8346777;28;20229;-67
2023/01/24 09:01:25;;;;;;;5.90;5.30;;;;;;;6.63;55.34;99692.94;8346768;28;20233;-66
2023/01/24 09:05:28;;;;;;;5.97;5.43;;;;;;;6.51;56.18;99687.78;8345713;28;20225;-66
2023/01/24 09:09:31;;;;;;;6.33;5.60;;;;;;;6.76;55.48;99697.22;8346027;28;20221;-66
2023/01/24 09:13:34;;;;;;;10.73;7.47;;;;;;;6.34;56.29;99698.97;8346279;28;20236;-66
2023/01/24 09:17:39;;;;;;;6.27;5.47;;;;;;;6.41;56.47;99684.34;8346337;28;20481;-66
2023/01/24 09:21:43;;;;;;;6.03;5.20;;;;;;;6.29;57.02;99692.94;8345594;28;20579;-66
2023/01/24 09:25:51;;;;;;;8.50;6.23;;;;;;;6.23;57.28;99700.66;8346047;28;20229;-66
2023/01/24 09:29:53;;;;;;;5.77;5.13;;;;;;;6.52;56.66;99692.94;8345970;28;20517;-67
2023/01/24 09:33:58;;;;;;;7.77;5.37;;;;;;;7.00;55.56;99698.03;8345625;28;20229;-66
2023/01/24 09:38:03;;;;;;;6.73;5.00;;;;;;;6.88;55.63;99698.06;8345534;28;20248;-66
2023/01/24 09:42:12;;;;;;;4.83;4.40;;;;;;;6.93;55.32;99704.03;8345734;28;20237;-66
2023/01/24 09:46:19;;;;;;;4.70;4.30;;;;;;;6.79;55.38;99662.88;8345673;28;20230;-66
2023/01/24 09:50:26;;;;;;;5.40;4.90;;;;;;;6.72;56.14;99695.50;8345410;28;20252;-66
2023/01/24 09:54:34;;;;;;;6.63;4.70;;;;;;;6.36;56.67;99697.25;8345199;28;20234;-66
2023/01/24 09:58:39;;;;;;;5.57;4.87;;;;;;;6.59;55.64;99701.53;8345213;28;20230;-66
2023/01/24 10:02:42;;;;;;;5.30;4.80;;;;;;;6.63;55.85;99706.66;8344758;28;20230;-66
2023/01/24 10:07:03;;;;;;;4.93;4.53;;;;;;;6.76;55.77;99709.22;8344534;28;20263;-66
2023/01/24 10:11:19;;;;;;;5.13;4.63;;;;;;;6.80;55.26;99674.91;8344921;28;20229;-66
2023/01/24 10:15:35;;;;;;;5.43;4.93;;;;;;;6.63;56.25;99686.06;8344919;28;20229;-66
2023/01/24 10:19:53;;;;;;;5.43;4.93;;;;;;;7.10;55.50;99693.72;8350529;28;20229;-66
2023/01/24 10:23:59;;;;;;;5.53;5.03;;;;;;;6.29;57.07;99698.09;8344963;28;20236;-66
2023/01/24 10:28:03;;;;;;;5.90;5.30;;;;;;;6.60;56.95;99690.34;8351454;28;20236;-67
2023/01/24 10:32:12;;;;;;;5.57;4.70;;;;;;;6.36;56.56;99694.66;8351461;28;20236;-66
2023/01/24 10:36:19;;;;;;;5.30;4.70;;;;;;;6.66;55.85;99659.44;8351347;28;20232;-66
2023/01/24 10:40:25;;;;;;;6.40;4.60;;;;;;;6.11;57.52;99687.78;8351123;28;20230;-66
2023/01/24 10:44:29;;;;;;;5.20;4.70;;;;;;;6.65;56.33;99686.94;8351054;28;20233;-66
2023/01/24 10:48:41;;;;;;;5.60;5.10;;;;;;;6.36;56.94;99686.94;8350726;28;20217;-67
2023/01/24 10:52:46;;;;;;;5.33;4.83;;;;;;;5.88;59.14;99684.28;8350449;28;20221;-66
2023/01/24 10:56:50;;;;;;;6.10;5.50;;;;;;;6.12;57.36;99674.06;8350696;28;20259;-66
2023/01/24 11:00:58;;;;;;;6.17;4.80;;;;;;;6.85;56.49;99679.19;8350616;28;20263;-66
2023/01/24 11:05:03;;;;;;;6.73;5.43;;;;;;;6.54;57.22;99672.34;8350367;28;20245;-66
2023/01/24 11:09:11;;;;;;;6.03;5.43;;;;;;;6.14;57.23;99670.63;8350168;28;20427;-66
2023/01/24 11:13:34;;;;;;;5.50;5.00;;;;;;;6.77;56.32;99669.75;8350196;28;20225;-67
2023/01/24 11:17:37;;;;;;;5.83;5.23;;;;;;;5.85;56.99;99560.00;8350034;28;20548;-66
2023/01/24 11:21:52;;;;;;;7.60;6.50;;;;;;;5.74;58.69;99665.38;8349944;28;20377;-67
2023/01/24 11:25:56;;;;;;;7.23;5.93;;;;;;;6.41;57.25;99656.06;8349474;28;20236;-66
2023/01/24 11:30:16;;;;;;;5.00;4.53;;;;;;;6.73;56.57;99663.75;8349260;28;20234;-66
2023/01/24 11:34:35;;;;;;;5.33;4.83;;;;;;;6.84;56.69;99651.69;8349697;28;20244;-66
2023/01/24 11:38:41;;;;;;;5.77;5.13;;;;;;;6.30;58.05;99647.47;8349384;28;20230;-66
2023/01/24 11:42:53;;;;;;;5.80;5.20;;;;;;;6.55;57.33;99640.59;8348811;28;20230;-66
2023/01/24 11:47:01;;;;;;;5.53;4.97;;;;;;;7.02;55.82;99640.47;8349297;28;20237;-66
2023/01/24 11:51:07;;;;;;;6.33;5.73;;;;;;;7.02;56.27;99637.06;8348944;28;20285;-66
2023/01/24 11:55:28;;;;;;;6.53;5.90;;;;;;;7.14;55.56;99638.72;8348827;28;20229;-66
2023/01/24 11:59:50;;;;;;;6.47;5.70;;;;;;;7.15;54.87;99637.88;8348870;28;20225;-66
2023/01/24 12:04:17;;;;;;;6.83;5.90;;;;;;;6.89;55.72;99637.94;8348240;28;20233;-66
2023/01/24 12:08:33;;;;;;;6.77;5.40;;;;;;;6.91;55.94;99634.53;8348336;28;20233;-66
2023/01/24 12:12:39;;;;;;;6.23;5.63;;;;;;;6.71;56.45;99634.56;8348364;28;20225;-66
2023/01/24 12:17:02;;;;;;;6.23;5.17;;;;;;;6.28;57.44;99639.75;8347962;28;20352;-66
2023/01/24 12:21:15;;;;;;;6.83;5.40;;;;;;;7.20;55.88;99633.56;8347994;28;20230;-66
2023/01/24 12:25:25;;;;;;;5.87;5.30;;;;;;;6.64;55.68;99631.16;8347654;28;20533;-66
2023/01/24 12:29:31;;;;;;;5.73;5.10;;;;;;;6.74;56.00;99626.84;8347791;28;20236;-66
2023/01/24 12:33:38;;;;;;;5.97;5.30;;;;;;;7.09;55.67;99630.19;8347925;28;20230;-66
2023/01/24 12:37:46;;;;;;;7.97;7.17;;;;;;;6.75;56.36;99635.41;8347465;28;20232;-66
2023/01/24 12:41:58;;;;;;;6.43;5.50;;;;;;;7.19;55.28;99629.25;8346464;28;20226;-66
2023/01/24 12:46:07;;;;;;;6.33;5.40;;;;;;;7.02;55.31;99625.03;8347339;28;20248;-67
2023/01/24 12:50:16;;;;;;;6.30;5.70;;;;;;;7.31;55.18;99641.22;8347388;28;20229;-67
2023/01/24 12:54:23;;;;;;;6.57;5.97;;;;;;;6.77;56.10;99637.13;8346839;28;20537;-66
2023/01/24 12:58:28;;;;;;;7.23;6.40;;;;;;;7.10;55.14;99619.88;8346711;28;20248;-66
2023/01/24 13:03:11;;;;;;;9.67;8.20;;;;;;;7.05;55.66;99637.91;8346898;28;20229;-66
2023/01/24 13:07:23;;;;;;;11.30;8.97;;;;;;;7.04;55.42;99633.63;8346095;28;20308;-67
2023/01/24 13:11:29;;;;;;;12.37;9.83;;;;;;;6.89;55.98;99636.22;8346396;28;20229;-66
2023/01/24 13:15:37;;;;;;;13.70;10.47;;;;;;;7.23;55.33;99643.84;8346479;28;20233;-66
2023/01/24 13:19:51;;;;;;;11.23;8.50;;;;;;;7.01;55.97;99648.25;8346299;28;20222;-67
2023/01/24 13:24:01;;;;;;;8.87;7.97;;;;;;;7.03;55.94;99643.94;8345940;28;20221;-67
2023/01/24 13:28:10;;;;;;;10.43;8.70;;;;;;;6.90;56.15;99642.25;8346003;28;20225;-67
2023/01/24 13:32:15;;;;;;;10.03;8.43;;;;;;;6.88;56.38;99642.25;8346060;28;20412;-67
2023/01/24 13:36:19;;;;;;;10.30;8.07;;;;;;;6.89;55.70;99640.53;8345860;28;20229;-66
2023/01/24 13:40:28;;;;;;;10.53;8.70;;;;;;;6.90;55.53;99635.38;8345905;28;20274;-67
2023/01/24 13:44:35;;;;;;;9.80;7.77;;;;;;;6.80;56.02;99641.44;8345708;28;20236;-68
2023/01/24 13:48:55;;;;;;;10.57;9.17;;;;;;;6.78;55.75;99620.81;8345535;28;20221;-66
2023/01/24 13:52:58;;;;;;;9.67;8.07;;;;;;;6.55;56.69;99620.00;8345192;28;20222;-66
2023/01/24 13:57:20;;;;;;;10.00;8.50;;;;;;;6.83;56.44;99639.72;8344968;28;20238;-67
2023/01/24 14:01:25;;;;;;;9.47;8.47;;;;;;;6.79;56.77;99625.09;8345137;28;20225;-66
2023/01/24 14:05:43;;;;;;;10.37;8.43;;;;;;;6.90;55.72;99619.06;8344223;28;20225;-66
2023/01/24 14:09:47;;;;;;;12.00;9.37;;;;;;;6.82;56.26;99608.81;8344645;28;20226;-66
2023/01/24 14:14:01;;;;;;;10.40;8.27;;;;;;;7.12;55.69;99628.44;8345084;28;20233;-66
2023/01/24 14:18:42;;;;;;;11.50;9.00;;;;;;;6.91;56.38;99613.03;8344804;28;20221;-67
2023/01/24 14:22:45;;;;;;;9.17;8.00;;;;;;;7.17;55.36;99621.53;8344302;28;20226;-66
2023/01/24 14:26:51;;;;;;;10.07;8.63;;;;;;;6.96;55.85;99607.03;8344557;28;20244;-64
2023/01/24 14:30:56;;;;;;;10.43;8.70;;;;;;;7.10;55.42;99624.16;8344493;28;20236;-67
2023/01/24 14:35:08;;;;;;;9.27;8.10;;;;;;;7.21;55.14;99619.81;8344426;28;20225;-64
2023/01/24 14:39:19;;;;;;;8.77;7.87;;;;;;;7.24;55.45;99636.13;8344503;28;20231;-64
2023/01/24 14:43:25;;;;;;;8.80;7.73;;;;;;;7.30;55.39;99642.97;8344688;28;20225;-65
2023/01/24 14:47:29;;;;;;;9.03;8.13;;;;;;;7.10;55.41;99635.34;8344453;28;20222;-63
2023/01/24 14:51:33;;;;;;;9.03;8.10;;;;;;;7.15;55.05;99648.19;8344414;28;20386;-65
2023/01/24 14:55:41;;;;;;;9.27;7.60;;;;;;;6.51;55.08;99566.81;8344414;28;20230;-64
2023/01/24 14:59:49;;;;;;;9.03;7.70;;;;;;;6.74;55.75;99650.03;8343996;28;20217;-64
2023/01/24 15:03:54;;;;;;;8.50;7.70;;;;;;;6.97;55.67;99649.13;8346272;28;20275;-63
2023/01/24 15:08:00;;;;;;;9.83;7.93;;;;;;;6.92;56.01;99645.69;8350098;28;20255;-63
2023/01/24 15:12:25;;;;;;;7.73;6.97;;;;;;;7.02;55.63;99644.78;8350237;28;20221;-65
2023/01/24 15:16:33;;;;;;;8.10;7.30;;;;;;;6.86;56.30;99643.97;8350124;28;20218;-64
2023/01/24 15:20:36;;;;;;;7.90;7.10;;;;;;;6.74;55.75;99646.56;8350018;28;20232;-63
2023/01/24 15:24:40;;;;;;;7.90;7.10;;;;;;;6.71;56.20;99636.28;8349900;28;20225;-64
2023/01/24 15:28:43;;;;;;;9.40;7.67;;;;;;;6.94;55.99;99647.38;8349323;28;20233;-66
2023/01/24 15:32:48;;;;;;;8.10;6.87;;;;;;;6.52;57.42;99649.19;8349701;28;20233;-65
2023/01/24 15:36:58;;;;;;;8.97;7.70;;;;;;;6.90;56.30;99639.69;8348988;28;20233;-64
2023/01/24 15:41:15;;;;;;;8.37;7.27;;;;;;;6.94;55.83;99651.69;8348979;28;20540;-65
2023/01/24 15:45:18;;;;;;;8.63;7.70;;;;;;;6.89;56.01;99638.81;8348504;28;20233;-63
2023/01/24 15:49:30;;;;;;;9.87;7.20;;;;;;;6.87;55.58;99655.97;8348461;28;20240;-64
2023/01/24 15:53:38;;;;;;;10.03;7.53;;;;;;;6.75;56.52;99651.72;8348791;28;20517;-64
2023/01/24 15:57:42;;;;;;;8.50;7.60;;;;;;;6.94;55.96;99646.53;8347868;28;20232;-65
2023/01/24 16:01:45;;;;;;;7.80;7.00;;;;;;;6.62;56.71;99650.03;8348294;28;20513;-65
2023/01/24 16:05:48;;;;;;;10.40;8.00;;;;;;;6.85;55.62;99655.13;8348204;28;20294;-64
2023/01/24 16:09:53;;;;;;;14.40;11.33;;;;;;;6.82;56.11;99665.47;8348384;28;20230;-64
2023/01/24 16:13:57;;;;;;;12.33;8.87;;;;;;;7.04;55.99;99654.25;8347239;28;20236;-65
2023/01/24 16:18:00;;;;;;;8.90;7.70;;;;;;;7.02;56.09;99663.66;8347503;28;20244;-65
2023/01/24 16:22:02;;;;;;;9.97;7.90;;;;;;;6.93;56.06;99653.41;8348058;28;20512;-65
2023/01/24 16:26:05;;;;;;;12.03;8.97;;;;;;;6.30;57.28;99650.91;8347854;28;20266;-65
2023/01/24 16:30:19;;;;;;;12.47;9.63;;;;;;;6.40;57.43;99646.63;8347797;28;20221;-64
2023/01/24 16:34:22;;;;;;;12.67;9.20;;;;;;;6.76;56.42;99648.28;8347843;28;20232;-65
2023/01/24 16:38:25;;;;;;;16.07;10.07;;;;;;;6.78;56.42;99674.06;8347574;28;20229;-64
2023/01/24 16:42:28;;;;;;;10.50;8.40;;;;;;;6.65;56.96;99684.34;8347525;28;20301;-64
2023/01/24 16:46:32;;;;;;;8.93;7.90;;;;;;;6.74;56.75;99674.88;8347242;28;20529;-65
2023/01/24 16:50:35;;;;;;;9.33;7.83;;;;;;;6.68;57.14;99680.06;8346963;28;20340;-65
2023/01/24 16:54:38;;;;;;;10.27;8.30;;;;;;;6.86;55.72;99677.47;8347264;28;20229;-65
2023/01/24 16:58:40;;;;;;;10.57;8.57;;;;;;;6.85;56.39;99684.34;8346913;28;20311;-65
2023/01/24 17:02:45;;;;;;;12.03;9.50;;;;;;;6.74;56.93;99686.06;8346376;28;20222;-65
2023/01/24 17:06:48;;;;;;;9.53;8.53;;;;;;;6.88;56.53;99674.88;8346465;28;20308;-65
2023/01/24 17:10:50;;;;;;;9.53;8.27;;;;;;;6.88;56.74;99674.88;8346592;28;20283;-65
2023/01/24 17:14:53;;;;;;;10.43;9.33;;;;;;;6.94;55.50;99670.56;8346399;28;20532;-65
2023/01/24 17:18:59;;;;;;;9.60;8.60;;;;;;;6.98;56.63;99684.28;8346209;28;20248;-64
2023/01/24 17:23:02;;;;;;;10.90;8.80;;;;;;;6.92;56.14;99668.88;8346277;28;20237;-65
2023/01/24 17:27:05;;;;;;;11.00;8.40;;;;;;;7.04;56.21;99684.28;8345752;28;20236;-65
2023/01/24 17:31:08;;;;;;;9.27;8.13;;;;;;;7.03;56.29;99674.84;8345819;28;20230;-64
2023/01/24 17:35:13;;;;;;;11.83;9.10;;;;;;;7.13;55.94;99676.53;8345895;28;20576;-65
2023/01/24 17:39:16;;;;;;;10.47;8.70;;;;;;;6.89;56.63;99669.72;8345497;28;20229;-65
2023/01/24 17:43:18;;;;;;;9.70;8.70;;;;;;;7.04;56.09;99674.84;8345601;28;20221;-64
2023/01/24 17:47:21;;;;;;;10.73;9.20;;;;;;;6.83;56.49;99672.31;8345470;28;20225;-64
2023/01/24 17:51:26;;;;;;;9.90;8.70;;;;;;;6.95;55.55;99672.28;8345874;28;20305;-65
2023/01/24 17:55:30;;;;;;;11.47;9.33;;;;;;;6.96;56.06;99675.72;8345766;28;20236;-65
2023/01/24 17:59:33;;;;;;;10.30;9.30;;;;;;;6.72;56.39;99679.19;8345305;28;20237;-65
2023/01/24 18:03:36;;;;;;;10.37;8.63;;;;;;;6.87;56.71;99679.16;8345107;28;20221;-65
2023/01/24 18:07:40;;;;;;;11.10;9.53;;;;;;;6.72;57.15;99669.75;8344835;28;20436;-65
2023/01/24 18:11:43;;;;;;;10.57;9.47;;;;;;;6.85;55.86;99668.88;8344683;28;20388;-65
2023/01/24 18:15:46;;;;;;;11.90;10.70;;;;;;;6.80;56.90;99673.19;8345010;28;20240;-65
2023/01/24 18:19:49;;;;;;;11.70;10.50;;;;;;;6.75;56.56;99672.31;8344818;28;20528;-65
2023/01/24 18:23:54;;;;;;;10.93;9.63;;;;;;;6.90;55.91;99671.44;8344931;28;20229;-66
2023/01/24 18:27:57;;;;;;;11.70;10.50;;;;;;;6.51;57.31;99647.47;8344788;28;20247;-65
2023/01/24 18:32:00;;;;;;;13.37;11.97;;;;;;;6.82;56.67;99673.19;8344750;28;20308;-65
2023/01/24 18:36:06;;;;;;;18.40;15.07;;;;;;;7.00;56.35;99662.81;8344886;28;20229;-65
2023/01/24 18:40:13;;;;;;;22.47;18.17;;;;;;;6.98;56.32;99667.13;8349301;28;20229;-66
2023/01/24 18:44:16;;;;;;;12.67;11.30;;;;;;;6.94;56.54;99662.84;8351327;28;20229;-66
2023/01/24 18:48:18;;;;;;;11.93;10.73;;;;;;;7.06;56.30;99664.50;8351055;28;20229;-66
2023/01/24 18:52:21;;;;;;;11.83;10.57;;;;;;;6.86;56.61;99662.00;8351070;28;20240;-66
2023/01/24 18:56:25;;;;;;;12.87;11.20;;;;;;;6.77;56.58;99660.28;8350783;28;20230;-66
2023/01/24 19:00:28;;;;;;;13.67;11.17;;;;;;;6.83;56.80;99670.59;8350740;28;20233;-65
2023/01/24 19:04:30;;;;;;;11.67;10.03;;;;;;;6.83;56.91;99664.56;8350463;28;20291;-67
2023/01/24 19:08:34;;;;;;;13.43;9.50;;;;;;;9.49;79.47;99672.97;8350228;28;20551;-67
2023/01/24 19:12:38;;;;;;;10.30;8.70;;;;;;;10.52;57.56;99673.22;8350418;28;20231;-67
2023/01/24 19:16:43;;;;;;;12.60;11.30;;;;;;;8.70;53.11;99667.84;8349845;28;20533;-66
2023/01/24 19:20:46;;;;;;;12.60;11.13;;;;;;;7.67;54.98;99637.59;8350121;28;20233;-66
2023/01/24 19:24:48;;;;;;;14.00;12.50;;;;;;;7.62;54.61;99680.63;8350003;28;20226;-66
2023/01/24 19:28:54;;;;;;;15.70;13.07;;;;;;;7.29;55.90;99686.78;8350021;28;20431;-67
2023/01/24 19:32:57;;;;;;;16.07;13.40;;;;;;;7.26;55.44;99685.06;8348678;28;20244;-66
2023/01/24 19:37:00;;;;;;;18.67;15.03;;;;;;;7.37;55.61;99674.75;8348625;28;20234;-66
2023/01/24 19:41:03;;;;;;;17.93;15.03;;;;;;;7.34;55.60;99683.31;8348360;28;20233;-67
2023/01/24 19:45:10;;;;;;;22.50;15.50;;;;;;;7.17;55.70;99685.94;8348241;28;20539;-66
2023/01/24 19:49:13;;;;;;;19.63;15.17;;;;;;;7.14;55.99;99685.09;8347803;28;20232;-67
2023/01/24 19:53:16;;;;;;;16.10;13.33;;;;;;;6.83;55.27;99656.84;8347632;28;20232;-66
2023/01/24 19:57:19;;;;;;;16.10;13.50;;;;;;;6.87;56.10;99653.41;8348290;28;20236;-66
2023/01/24 20:01:24;;;;;;;13.57;12.17;;;;;;;6.91;56.04;99686.03;8347662;28;20248;-67